createdAt,value
2019-06-15T00:01:14.500Z,5.28
2019-06-15T00:03:43.035Z,5.05
2019-06-15T00:06:11.498Z,5.33
2019-06-15T00:08:39.893Z,5.55
2019-06-15T00:11:08.543Z,5.58
2019-06-15T00:13:37.030Z,5.78
2019-06-15T00:16:05.140Z,5.25
2019-06-15T00:18:33.580Z,4.70
2019-06-15T00:21:02.077Z,4.78
2019-06-15T00:23:30.511Z,6.35
2019-06-15T00:25:58.914Z,5.22
2019-06-15T00:28:27.356Z,4.90
2019-06-15T00:30:55.771Z,5.12
2019-06-15T00:33:43.303Z,5.28
2019-06-15T00:36:11.835Z,5.17
2019-06-15T00:38:40.268Z,3.37
2019-06-15T00:41:08.360Z,3.60
2019-06-15T00:43:36.812Z,3.47
2019-06-15T00:46:05.334Z,3.05
2019-06-15T00:48:33.737Z,3.55
2019-06-15T00:51:02.271Z,3.40
2019-06-15T00:53:33.980Z,3.33
2019-06-15T00:56:02.500Z,2.87
2019-06-15T00:58:30.977Z,3.92
2019-06-15T01:00:59.403Z,3.58
2019-06-15T01:03:27.833Z,3.65
2019-06-15T01:05:56.724Z,4.08
2019-06-15T01:08:25.149Z,4.20
2019-06-15T01:10:53.552Z,4.22
2019-06-15T01:13:41.017Z,4.37
2019-06-15T01:16:09.114Z,4.50
2019-06-15T01:18:37.673Z,3.87
2019-06-15T01:21:06.185Z,4.62
2019-06-15T01:23:35.336Z,3.90
2019-06-15T01:26:03.816Z,3.58
2019-06-15T01:28:32.432Z,3.15
2019-06-15T01:31:00.956Z,2.70
2019-06-15T01:33:29.074Z,2.50
2019-06-15T01:35:57.503Z,2.92
2019-06-15T01:38:25.747Z,2.45
2019-06-15T01:40:54.280Z,2.22
2019-06-15T01:43:22.495Z,2.40
2019-06-15T01:45:50.956Z,2.65
2019-06-15T01:48:19.551Z,2.47
2019-06-15T01:50:47.986Z,2.70
2019-06-15T01:53:16.417Z,2.17
2019-06-15T01:55:44.873Z,3.45
2019-06-15T01:58:13.303Z,2.08
2019-06-15T02:00:41.539Z,2.02
2019-06-15T02:03:10.142Z,2.00
2019-06-15T02:05:39.134Z,2.00
2019-06-15T02:08:07.630Z,1.65
2019-06-15T02:10:36.202Z,2.12
2019-06-15T02:13:05.167Z,2.15
2019-06-15T02:15:33.635Z,1.62
2019-06-15T02:18:02.042Z,2.60
2019-06-15T02:20:30.521Z,2.35
2019-06-15T02:22:58.668Z,1.87
2019-06-15T02:25:35.892Z,1.65
2019-06-15T02:27:59.763Z,1.70
2019-06-15T02:30:30.811Z,1.77
2019-06-15T02:33:00.592Z,2.08
2019-06-15T02:35:29.740Z,2.02
2019-06-15T02:37:58.544Z,1.92
2019-06-15T02:40:26.998Z,2.25
2019-06-15T02:42:55.703Z,1.75
2019-06-15T02:45:23.871Z,1.87
2019-06-15T02:47:52.296Z,1.55
2019-06-15T02:50:20.453Z,1.60
2019-06-15T02:52:48.630Z,1.47
2019-06-15T02:55:16.737Z,1.47
2019-06-15T02:57:45.361Z,1.25
2019-06-15T03:00:14.888Z,1.90
2019-06-15T03:02:43.333Z,2.02
2019-06-15T03:05:31.114Z,1.70
2019-06-15T03:07:59.729Z,2.65
2019-06-15T03:10:29.295Z,2.05
2019-06-15T03:12:57.439Z,2.00
2019-06-15T03:15:25.890Z,1.72
2019-06-15T03:17:54.385Z,1.80
2019-06-15T03:20:22.472Z,1.50
2019-06-15T03:22:50.904Z,2.33
2019-06-15T03:25:19.490Z,1.50
2019-06-15T03:27:47.660Z,1.82
2019-06-15T03:30:16.356Z,1.42
2019-06-15T03:32:44.534Z,1.95
2019-06-15T03:35:15.590Z,1.67
2019-06-15T03:37:43.771Z,2.92
2019-06-15T03:40:12.762Z,2.10
2019-06-15T03:42:41.184Z,1.75
2019-06-15T03:45:10.652Z,2.85
2019-06-15T03:47:39.044Z,2.77
2019-06-15T03:50:08.076Z,2.30
2019-06-15T03:52:36.522Z,1.60
2019-06-15T03:55:06.057Z,1.40
2019-06-15T03:57:34.716Z,1.60
2019-06-15T04:00:03.148Z,2.20
2019-06-15T04:02:31.587Z,1.32
2019-06-15T04:05:00.032Z,1.82
2019-06-15T04:07:28.454Z,2.20
2019-06-15T04:09:56.895Z,2.25
2019-06-15T04:12:25.323Z,1.32
2019-06-15T04:14:53.757Z,1.72
2019-06-15T04:17:21.862Z,1.45
2019-06-15T04:19:50.296Z,1.82
2019-06-15T04:22:18.717Z,2.08
2019-06-15T04:24:47.236Z,2.00
2019-06-15T04:27:15.664Z,1.85
2019-06-15T04:29:43.765Z,1.57
2019-06-15T04:32:12.161Z,1.75
2019-06-15T04:34:40.599Z,2.08
2019-06-15T04:37:09.090Z,1.87
2019-06-15T04:39:37.570Z,1.95
2019-06-15T04:42:06.009Z,1.95
2019-06-15T04:44:34.501Z,1.72
2019-06-15T04:47:02.939Z,1.47
2019-06-15T04:49:31.352Z,1.90
2019-06-15T04:51:59.795Z,1.72
2019-06-15T04:54:27.902Z,1.85
2019-06-15T04:56:56.378Z,2.15
2019-06-15T04:59:24.443Z,2.02
2019-06-15T05:01:52.857Z,1.92
2019-06-15T05:04:21.284Z,2.00
2019-06-15T05:06:49.694Z,1.57
2019-06-15T05:09:18.117Z,1.70
2019-06-15T05:11:46.524Z,1.70
2019-06-15T05:14:14.966Z,1.57
2019-06-15T05:16:43.068Z,1.62
2019-06-15T05:19:11.536Z,1.57
2019-06-15T05:21:39.984Z,2.47
2019-06-15T05:24:08.771Z,2.08
2019-06-15T05:26:37.435Z,1.77
2019-06-15T05:29:05.921Z,2.20
2019-06-15T05:31:34.362Z,1.98
2019-06-15T05:34:02.784Z,1.70
2019-06-15T05:36:31.238Z,2.75
2019-06-15T05:38:59.667Z,1.98
2019-06-15T05:41:28.088Z,2.47
2019-06-15T05:43:56.519Z,2.35
2019-06-15T05:46:44.295Z,2.20
2019-06-15T05:49:12.715Z,2.20
2019-06-15T05:51:41.151Z,2.40
2019-06-15T05:54:09.576Z,1.90
2019-06-15T05:56:37.990Z,2.20
2019-06-15T05:59:06.416Z,2.45
2019-06-15T06:01:34.859Z,3.08
2019-06-15T06:04:03.265Z,2.45
2019-06-15T06:06:31.382Z,1.98
2019-06-15T06:08:59.848Z,2.05
2019-06-15T06:11:28.284Z,2.70
2019-06-15T06:13:56.678Z,2.30
2019-06-15T06:16:25.018Z,2.20
2019-06-15T06:18:53.491Z,2.02
2019-06-15T06:21:21.667Z,2.58
2019-06-15T06:23:50.096Z,1.57
2019-06-15T06:26:18.501Z,3.65
2019-06-15T06:28:56.889Z,1.92
2019-06-15T06:31:17.066Z,2.33
2019-06-15T06:33:45.482Z,1.70
2019-06-15T06:36:13.918Z,1.70
2019-06-15T06:38:42.349Z,1.92
2019-06-15T06:41:13.369Z,2.02
2019-06-15T06:43:40.938Z,2.85
2019-06-15T06:46:09.357Z,1.55
2019-06-15T06:48:37.821Z,1.50
2019-06-15T06:51:06.298Z,1.35
2019-06-15T06:53:34.701Z,1.60
2019-06-15T06:56:03.133Z,1.80
2019-06-15T06:58:31.639Z,1.80
2019-06-15T07:00:59.818Z,1.50
2019-06-15T07:03:28.453Z,1.82
2019-06-15T07:05:56.954Z,2.55
2019-06-15T07:08:25.062Z,1.35
2019-06-15T07:10:53.555Z,1.17
2019-06-15T07:13:21.989Z,1.30
2019-06-15T07:15:50.413Z,1.40
2019-06-15T07:18:18.820Z,1.10
2019-06-15T07:20:47.262Z,0.70
2019-06-15T07:23:15.758Z,1.00
2019-06-15T07:25:44.467Z,0.80
2019-06-15T07:28:12.955Z,0.90
2019-06-15T07:30:41.380Z,0.60
2019-06-15T07:33:10.056Z,1.02
2019-06-15T07:35:38.494Z,1.00
2019-06-15T07:38:06.602Z,1.00
2019-06-15T07:40:35.006Z,0.70
2019-06-15T07:43:03.457Z,1.20
2019-06-15T07:45:31.868Z,0.68
2019-06-15T07:48:00.313Z,0.90
2019-06-15T07:50:28.734Z,0.60
2019-06-15T07:53:16.518Z,0.70
2019-06-15T07:55:45.294Z,0.60
2019-06-15T07:58:24.234Z,0.60
2019-06-15T08:00:43.870Z,0.80
2019-06-15T08:03:11.977Z,0.80
2019-06-15T08:05:40.407Z,0.40
2019-06-15T08:08:08.843Z,0.50
2019-06-15T08:10:37.358Z,0.60
2019-06-15T08:13:05.986Z,0.60
2019-06-15T08:15:34.408Z,0.60
2019-06-15T08:18:02.843Z,1.15
2019-06-15T08:20:32.777Z,0.50
2019-06-15T08:23:01.457Z,0.50
2019-06-15T08:25:29.895Z,0.50
2019-06-15T08:27:58.459Z,0.60
2019-06-15T08:30:30.850Z,0.60
2019-06-15T08:32:59.276Z,0.53
2019-06-15T08:35:27.727Z,0.47
2019-06-15T08:37:56.186Z,0.50
2019-06-15T08:40:24.644Z,0.70
2019-06-15T08:42:53.048Z,0.57
2019-06-15T08:45:21.484Z,0.60
2019-06-15T08:47:49.880Z,0.93
2019-06-15T08:50:18.596Z,0.68
2019-06-15T08:52:47.023Z,0.50
2019-06-15T08:55:15.228Z,0.90
2019-06-15T08:57:43.653Z,0.80
2019-06-15T09:00:31.433Z,0.80
2019-06-15T09:02:59.608Z,0.70
2019-06-15T09:05:27.720Z,0.50
2019-06-15T09:07:55.804Z,0.70
2019-06-15T09:10:24.235Z,0.70
2019-06-15T09:12:52.321Z,0.55
2019-06-15T09:15:30.777Z,0.75
2019-06-15T09:17:59.199Z,0.65
2019-06-15T09:20:27.633Z,0.80
2019-06-15T09:22:56.075Z,0.98
2019-06-15T09:25:43.818Z,0.60
2019-06-15T09:28:12.323Z,0.65
2019-06-15T09:30:40.416Z,0.75
2019-06-15T09:33:09.082Z,0.70
2019-06-15T09:35:37.514Z,0.78
2019-06-15T09:38:05.973Z,0.90
2019-06-15T09:40:35.078Z,1.00
2019-06-15T09:43:03.161Z,0.60
2019-06-15T09:45:33.050Z,0.70
2019-06-15T09:48:01.726Z,0.80
2019-06-15T09:50:30.157Z,0.65
2019-06-15T09:52:58.587Z,0.60
2019-06-15T09:55:27.025Z,0.80
2019-06-15T09:57:55.439Z,0.70
2019-06-15T10:00:23.615Z,0.57
2019-06-15T10:02:52.039Z,1.10
2019-06-15T10:05:20.112Z,0.65
2019-06-15T10:07:48.545Z,0.80
2019-06-15T10:10:17.250Z,0.80
2019-06-15T10:12:45.353Z,0.70
2019-06-15T10:15:15.740Z,0.70
2019-06-15T10:17:44.242Z,0.90
2019-06-15T10:20:12.884Z,0.80
2019-06-15T10:22:41.330Z,1.15
2019-06-15T10:25:10.510Z,0.72
2019-06-15T10:27:38.924Z,0.98
2019-06-15T10:30:08.314Z,1.00
2019-06-15T10:32:36.790Z,1.12
2019-06-15T10:35:08.317Z,0.82
2019-06-15T10:37:36.662Z,0.70
2019-06-15T10:40:07.601Z,0.80
2019-06-15T10:42:36.060Z,0.85
2019-06-15T10:45:06.729Z,0.80
2019-06-15T10:47:35.230Z,1.20
2019-06-15T10:50:06.494Z,1.00
2019-06-15T10:52:34.569Z,0.80
2019-06-15T10:55:04.081Z,0.90
2019-06-15T10:57:32.509Z,0.90
2019-06-15T11:00:00.934Z,1.25
2019-06-15T11:02:29.034Z,0.90
2019-06-15T11:04:57.544Z,1.10
2019-06-15T11:07:25.944Z,1.00
2019-06-15T11:09:54.344Z,1.10
2019-06-15T11:12:22.777Z,1.10
2019-06-15T11:14:51.200Z,0.88
2019-06-15T11:17:19.697Z,1.10
2019-06-15T11:19:48.121Z,0.98
2019-06-15T11:22:16.563Z,1.15
2019-06-15T11:24:44.657Z,1.07
2019-06-15T11:27:13.070Z,1.42
2019-06-15T11:29:41.498Z,1.37
2019-06-15T11:32:09.958Z,1.00
2019-06-15T11:34:38.409Z,0.70
2019-06-15T11:37:06.859Z,0.65
2019-06-15T11:39:35.276Z,0.98
2019-06-15T11:42:03.741Z,0.88
2019-06-15T11:44:32.162Z,1.10
2019-06-15T11:47:00.597Z,1.00
2019-06-15T11:49:29.008Z,0.95
2019-06-15T11:51:57.129Z,1.00
2019-06-15T11:54:25.535Z,0.80
2019-06-15T11:56:53.979Z,1.00
2019-06-15T11:59:22.410Z,1.00
2019-06-15T12:01:50.850Z,0.82
2019-06-15T12:04:19.371Z,0.80
2019-06-15T12:06:47.797Z,0.90
2019-06-15T12:09:16.215Z,1.00
2019-06-15T12:11:44.834Z,0.93
2019-06-15T12:14:13.336Z,1.12
2019-06-15T12:16:41.779Z,1.15
2019-06-15T12:19:10.198Z,1.02
2019-06-15T12:21:38.696Z,0.95
2019-06-15T12:24:07.113Z,0.80
2019-06-15T12:26:35.536Z,0.90
2019-06-15T12:29:04.141Z,1.00
2019-06-15T12:31:32.237Z,0.95
2019-06-15T12:34:00.691Z,0.80
2019-06-15T12:36:29.092Z,1.10
2019-06-15T12:38:57.245Z,1.60
2019-06-15T12:41:25.646Z,1.20
2019-06-15T12:43:54.082Z,1.00
2019-06-15T12:46:22.511Z,1.10
2019-06-15T12:48:50.941Z,1.17
2019-06-15T12:51:19.340Z,1.00
2019-06-15T12:53:47.780Z,0.80
2019-06-15T12:56:16.688Z,1.30
2019-06-15T12:58:45.134Z,1.10
2019-06-15T13:01:13.662Z,1.07
2019-06-15T13:03:42.106Z,1.15
2019-06-15T13:06:10.546Z,1.20
2019-06-15T13:08:38.987Z,1.07
2019-06-15T13:11:07.382Z,0.93
2019-06-15T13:13:35.813Z,1.50
2019-06-15T13:16:04.514Z,1.10
2019-06-15T13:18:32.964Z,1.20
2019-06-15T13:21:01.378Z,1.30
2019-06-15T13:23:29.781Z,1.20
2019-06-15T13:25:58.181Z,1.52
2019-06-15T13:28:26.675Z,1.32
2019-06-15T13:30:55.099Z,0.93
2019-06-15T13:33:23.530Z,1.35
2019-06-15T13:35:51.969Z,1.37
2019-06-15T13:38:20.454Z,1.35
2019-06-15T13:40:49.017Z,1.60
2019-06-15T13:43:17.433Z,2.50
2019-06-15T13:45:45.869Z,1.17
2019-06-15T13:48:14.316Z,1.40
2019-06-15T13:50:42.735Z,0.95
2019-06-15T13:53:11.164Z,0.90
2019-06-15T13:55:39.568Z,1.17
2019-06-15T13:58:08.005Z,1.32
2019-06-15T14:00:36.449Z,0.93
2019-06-15T14:03:05.228Z,1.05
2019-06-15T14:05:33.680Z,1.00
2019-06-15T14:08:02.121Z,0.95
2019-06-15T14:10:43.166Z,0.78
2019-06-15T14:13:11.244Z,1.20
2019-06-15T14:15:39.676Z,1.30
2019-06-15T14:18:08.120Z,1.00
2019-06-15T14:20:55.921Z,0.78
2019-06-15T14:23:43.701Z,1.12
2019-06-15T14:26:12.196Z,1.00
2019-06-15T14:28:40.309Z,1.05
2019-06-15T14:31:08.746Z,1.15
2019-06-15T14:33:37.155Z,1.20
2019-06-15T14:36:05.591Z,1.20
2019-06-15T14:38:33.685Z,1.15
2019-06-15T14:41:02.156Z,1.20
2019-06-15T14:43:30.734Z,0.90
2019-06-15T14:46:01.206Z,1.22
2019-06-15T14:48:29.374Z,0.90
2019-06-15T14:50:57.477Z,1.12
2019-06-15T14:53:25.888Z,1.30
2019-06-15T14:55:56.351Z,1.15
2019-06-15T14:58:26.320Z,1.00
2019-06-15T15:00:56.963Z,1.00
2019-06-15T15:03:26.310Z,0.75
2019-06-15T15:05:54.390Z,0.82
2019-06-15T15:08:22.812Z,0.98
2019-06-15T15:10:50.960Z,0.90
2019-06-15T15:13:19.421Z,0.93
2019-06-15T15:15:47.852Z,1.12
2019-06-15T15:18:16.450Z,0.88
2019-06-15T15:20:44.891Z,0.80
2019-06-15T15:23:13.327Z,0.70
2019-06-15T15:25:41.759Z,1.00
2019-06-15T15:28:10.327Z,0.98
2019-06-15T15:30:40.606Z,0.85
2019-06-15T15:33:09.369Z,0.93
2019-06-15T15:35:37.803Z,1.00
2019-06-15T15:38:06.289Z,0.90
2019-06-15T15:40:36.555Z,0.82
2019-06-15T15:43:06.925Z,1.12
2019-06-15T15:45:36.989Z,0.98
2019-06-15T15:48:06.809Z,0.88
2019-06-15T15:50:37.012Z,1.30
2019-06-15T15:53:05.373Z,1.77
2019-06-15T15:55:33.491Z,0.80
2019-06-15T15:58:01.916Z,0.82
2019-06-15T16:00:31.507Z,0.88
2019-06-15T16:02:59.997Z,1.15
2019-06-15T16:05:28.492Z,1.02
2019-06-15T16:07:57.820Z,0.80
2019-06-15T16:10:26.708Z,1.00
2019-06-15T16:12:56.821Z,0.70
2019-06-15T16:15:26.469Z,1.17
2019-06-15T16:17:56.239Z,0.90
2019-06-15T16:20:26.328Z,1.05
2019-06-15T16:22:56.382Z,1.17
2019-06-15T16:25:26.660Z,1.47
2019-06-15T16:27:56.661Z,1.00
2019-06-15T16:30:46.152Z,1.00
2019-06-15T16:33:01.236Z,0.82
2019-06-15T16:35:27.124Z,1.00
2019-06-15T16:37:55.975Z,1.30
2019-06-15T16:40:37.922Z,0.72
2019-06-15T16:43:07.066Z,0.80
2019-06-15T16:45:37.158Z,1.00
2019-06-15T16:48:06.501Z,2.67
2019-06-15T16:50:36.603Z,1.05
2019-06-15T16:53:06.029Z,1.87
2019-06-15T16:55:36.840Z,0.95
2019-06-15T16:58:07.514Z,0.85
2019-06-15T17:00:36.327Z,0.85
2019-06-15T17:03:19.746Z,1.00
2019-06-15T17:05:36.291Z,0.93
2019-06-15T17:08:07.043Z,0.72
2019-06-15T17:10:38.870Z,0.70
2019-06-15T17:13:07.471Z,0.80
2019-06-15T17:15:37.120Z,1.00
2019-06-15T17:18:06.457Z,1.10
2019-06-15T17:20:37.958Z,0.90
2019-06-15T17:23:07.133Z,0.98
2019-06-15T17:25:36.275Z,0.80
2019-06-15T17:28:04.910Z,1.30
2019-06-15T17:30:33.005Z,1.00
2019-06-15T17:33:04.742Z,0.98
2019-06-15T17:35:31.610Z,1.12
2019-06-15T17:38:00.057Z,1.17
2019-06-15T17:40:28.457Z,1.17
2019-06-15T17:42:57.116Z,0.90
2019-06-15T17:45:26.705Z,0.80
2019-06-15T17:47:57.003Z,1.15
2019-06-15T17:50:37.528Z,18.30
2019-06-15T17:53:06.991Z,5.37
2019-06-15T17:55:36.791Z,1.52
2019-06-15T17:58:06.459Z,1.62
2019-06-15T18:00:46.710Z,1.25
2019-06-15T18:03:16.924Z,1.20
2019-06-15T18:05:47.661Z,1.00
2019-06-15T18:08:16.497Z,0.98
2019-06-15T18:10:47.747Z,0.90
2019-06-15T18:13:16.812Z,0.90
2019-06-15T18:15:47.764Z,1.20
2019-06-15T18:18:16.748Z,1.27
2019-06-15T18:20:45.656Z,1.02
2019-06-15T18:23:17.015Z,1.10
2019-06-15T18:25:46.951Z,1.00
2019-06-15T18:28:17.674Z,0.95
2019-06-15T18:30:46.668Z,1.10
2019-06-15T18:33:16.418Z,0.90
2019-06-15T18:35:47.520Z,1.87
2019-06-15T18:38:36.983Z,0.90
2019-06-15T18:41:07.092Z,1.32
2019-06-15T18:43:36.668Z,1.12
2019-06-15T18:46:07.169Z,1.75
2019-06-15T18:48:36.166Z,1.30
2019-06-15T18:51:07.447Z,1.20
2019-06-15T18:53:38.966Z,1.42
2019-06-15T18:56:06.964Z,1.10
2019-06-15T18:58:37.247Z,1.20
2019-06-15T19:01:06.910Z,1.10
2019-06-15T19:03:37.607Z,1.00
2019-06-15T19:06:06.542Z,1.82
2019-06-15T19:08:35.436Z,1.10
2019-06-15T19:11:04.008Z,1.12
2019-06-15T19:13:32.495Z,0.88
2019-06-15T19:16:00.929Z,1.07
2019-06-15T19:18:29.343Z,1.22
2019-06-15T19:20:57.791Z,1.50
2019-06-15T19:23:26.574Z,1.25
2019-06-15T19:25:57.299Z,1.22
2019-06-15T19:28:26.744Z,1.10
2019-06-15T19:30:56.057Z,1.10
2019-06-15T19:33:26.738Z,0.90
2019-06-15T19:35:56.974Z,1.40
2019-06-15T19:38:27.075Z,0.88
2019-06-15T19:40:56.551Z,0.80
2019-06-15T19:43:25.396Z,0.80
2019-06-15T19:45:56.283Z,0.90
2019-06-15T19:48:26.561Z,1.00
2019-06-15T19:50:56.445Z,0.82
2019-06-15T19:53:24.326Z,1.00
2019-06-15T19:55:52.756Z,0.90
2019-06-15T19:58:21.198Z,1.02
2019-06-15T20:00:49.603Z,1.10
2019-06-15T20:03:17.681Z,1.07
2019-06-15T20:05:46.270Z,1.00
2019-06-15T20:08:17.423Z,0.85
2019-06-15T20:10:47.280Z,1.00
2019-06-15T20:13:15.856Z,0.85
2019-06-15T20:15:46.654Z,0.82
2019-06-15T20:18:14.598Z,0.95
2019-06-15T20:20:43.169Z,0.82
2019-06-15T20:23:11.265Z,0.80
2019-06-15T20:25:39.765Z,0.88
2019-06-15T20:28:08.203Z,0.80
2019-06-15T20:30:37.223Z,0.70
2019-06-15T20:33:07.713Z,0.70
2019-06-15T20:35:36.092Z,0.85
2019-06-15T20:38:04.766Z,0.70
2019-06-15T20:40:33.194Z,1.07
2019-06-15T20:43:01.643Z,0.70
2019-06-15T20:45:31.606Z,0.72
2019-06-15T20:47:59.985Z,0.90
2019-06-15T20:50:28.693Z,0.72
2019-06-15T20:52:57.312Z,0.90
2019-06-15T20:55:26.557Z,0.80
2019-06-15T20:57:56.797Z,0.80
2019-06-15T21:00:26.236Z,0.80
2019-06-15T21:02:56.239Z,0.70
2019-06-15T21:05:34.828Z,0.90
2019-06-15T21:07:57.381Z,0.82
2019-06-15T21:10:26.358Z,0.70
2019-06-15T21:12:55.247Z,0.57
2019-06-15T21:15:26.729Z,0.47
2019-06-15T21:17:57.118Z,0.68
2019-06-15T21:20:26.763Z,0.60
2019-06-15T21:22:57.260Z,0.70
2019-06-15T21:25:26.506Z,0.65
2019-06-15T21:27:56.764Z,0.90
2019-06-15T21:30:26.927Z,1.00
2019-06-15T21:32:55.987Z,0.78
2019-06-15T21:35:26.838Z,0.72
2019-06-15T21:37:57.153Z,0.60
2019-06-15T21:40:27.260Z,0.85
2019-06-15T21:42:56.257Z,0.65
2019-06-15T21:45:24.733Z,0.80
2019-06-15T21:47:52.879Z,0.90
2019-06-15T21:50:21.310Z,0.65
2019-06-15T21:52:49.831Z,0.65
2019-06-15T21:55:17.930Z,0.80
2019-06-15T21:57:46.578Z,0.70
2019-06-15T22:00:19.589Z,0.70
2019-06-15T22:02:47.996Z,0.57
2019-06-15T22:05:16.699Z,0.60
2019-06-15T22:07:47.502Z,0.78
2019-06-15T22:10:16.060Z,0.85
2019-06-15T22:12:44.678Z,0.80
2019-06-15T22:15:15.972Z,0.80
2019-06-15T22:17:45.302Z,0.80
2019-06-15T22:20:13.923Z,0.55
2019-06-15T22:22:42.042Z,0.50
2019-06-15T22:25:10.313Z,0.50
2019-06-15T22:27:38.749Z,0.40
2019-06-15T22:30:08.192Z,0.30
2019-06-15T22:32:36.632Z,0.30
2019-06-15T22:35:08.244Z,0.33
2019-06-15T22:37:36.690Z,0.20
2019-06-15T22:40:08.308Z,0.20
2019-06-15T22:42:36.874Z,0.10
2019-06-15T22:45:06.990Z,0.20
2019-06-15T22:47:36.114Z,0.20
2019-06-15T22:50:06.910Z,0.47
2019-06-15T22:52:36.597Z,0.45
2019-06-15T22:55:06.139Z,0.55
2019-06-15T22:57:37.095Z,0.37
2019-06-15T23:00:09.346Z,0.33
2019-06-15T23:02:38.227Z,0.37
2019-06-15T23:05:07.398Z,0.40
2019-06-15T23:07:36.534Z,0.10
2019-06-15T23:10:06.960Z,0.30
2019-06-15T23:12:37.132Z,0.20
2019-06-15T23:15:08.652Z,0.30
2019-06-15T23:17:37.483Z,0.23
2019-06-15T23:20:09.462Z,0.30
2019-06-15T23:22:37.852Z,0.20
2019-06-15T23:25:06.371Z,0.20
2019-06-15T23:27:34.695Z,0.40
2019-06-15T23:30:06.869Z,0.23
2019-06-15T23:32:35.474Z,0.20
2019-06-15T23:35:09.181Z,0.20
2019-06-15T23:37:37.764Z,0.30
2019-06-15T23:40:18.852Z,0.50
2019-06-15T23:42:48.491Z,0.30
2019-06-15T23:45:19.440Z,0.70
2019-06-15T23:47:47.815Z,0.30
2019-06-15T23:50:16.943Z,0.20
2019-06-15T23:52:46.950Z,0.23
2019-06-15T23:55:17.241Z,0.30
2019-06-15T23:57:46.523Z,0.30
